sensor_id;sensor_type;location;lat;lon;timestamp;P1;durP1;ratioP1;P2;durP2;ratioP2
26335;SDS011;14047;50.936;4.654;2023-02-21T00:01:34;63.33;;;28.58;;
26335;SDS011;14047;50.936;4.654;2023-02-21T00:04:19;63.13;;;29.25;;
26335;SDS011;14047;50.936;4.654;2023-02-21T00:07:03;66.95;;;28.67;;
26335;SDS011;14047;50.936;4.654;2023-02-21T00:09:48;64.38;;;29.35;;
26335;SDS011;14047;50.936;4.654;2023-02-21T00:12:32;67.13;;;29.45;;
26335;SDS011;14047;50.936;4.654;2023-02-21T00:15:17;65.72;;;30.17;;
26335;SDS011;14047;50.936;4.654;2023-02-21T00:18:01;68.72;;;29.33;;
26335;SDS011;14047;50.936;4.654;2023-02-21T00:20:45;62.05;;;27.80;;
26335;SDS011;14047;50.936;4.654;2023-02-21T00:23:33;63.22;;;28.33;;
26335;SDS011;14047;50.936;4.654;2023-02-21T00:26:19;67.13;;;31.77;;
26335;SDS011;14047;50.936;4.654;2023-02-21T00:29:05;69.95;;;29.85;;
26335;SDS011;14047;50.936;4.654;2023-02-21T00:31:50;66.10;;;29.02;;
26335;SDS011;14047;50.936;4.654;2023-02-21T00:34:36;62.35;;;27.67;;
26335;SDS011;14047;50.936;4.654;2023-02-21T00:37:21;59.65;;;28.63;;
26335;SDS011;14047;50.936;4.654;2023-02-21T00:40:05;64.70;;;27.95;;
26335;SDS011;14047;50.936;4.654;2023-02-21T00:42:50;54.95;;;25.38;;
26335;SDS011;14047;50.936;4.654;2023-02-21T00:45:34;58.85;;;26.60;;
26335;SDS011;14047;50.936;4.654;2023-02-21T00:48:19;63.63;;;28.88;;
26335;SDS011;14047;50.936;4.654;2023-02-21T00:51:04;60.58;;;26.48;;
26335;SDS011;14047;50.936;4.654;2023-02-21T00:53:49;58.17;;;25.67;;
26335;SDS011;14047;50.936;4.654;2023-02-21T00:56:33;54.72;;;25.95;;
26335;SDS011;14047;50.936;4.654;2023-02-21T00:59:17;68.60;;;28.60;;
26335;SDS011;14047;50.936;4.654;2023-02-21T01:02:02;59.90;;;26.73;;
26335;SDS011;14047;50.936;4.654;2023-02-21T01:04:47;64.28;;;26.67;;
26335;SDS011;14047;50.936;4.654;2023-02-21T01:07:31;62.78;;;27.90;;
26335;SDS011;14047;50.936;4.654;2023-02-21T01:10:16;66.78;;;28.02;;
26335;SDS011;14047;50.936;4.654;2023-02-21T01:13:00;71.15;;;29.50;;
26335;SDS011;14047;50.936;4.654;2023-02-21T01:15:44;67.72;;;27.90;;
26335;SDS011;14047;50.936;4.654;2023-02-21T01:18:29;62.35;;;28.17;;
26335;SDS011;14047;50.936;4.654;2023-02-21T01:21:14;68.53;;;27.42;;
26335;SDS011;14047;50.936;4.654;2023-02-21T01:24:00;61.80;;;28.98;;
26335;SDS011;14047;50.936;4.654;2023-02-21T01:26:45;64.13;;;27.70;;
26335;SDS011;14047;50.936;4.654;2023-02-21T01:29:29;58.85;;;26.25;;
26335;SDS011;14047;50.936;4.654;2023-02-21T01:32:13;58.15;;;26.48;;
26335;SDS011;14047;50.936;4.654;2023-02-21T01:34:58;54.55;;;25.83;;
26335;SDS011;14047;50.936;4.654;2023-02-21T01:37:43;53.78;;;24.45;;
26335;SDS011;14047;50.936;4.654;2023-02-21T01:40:28;57.08;;;25.13;;
26335;SDS011;14047;50.936;4.654;2023-02-21T01:43:17;58.90;;;24.50;;
26335;SDS011;14047;50.936;4.654;2023-02-21T01:46:03;63.10;;;24.17;;
26335;SDS011;14047;50.936;4.654;2023-02-21T01:48:48;54.85;;;24.48;;
26335;SDS011;14047;50.936;4.654;2023-02-21T01:51:36;53.67;;;23.50;;
26335;SDS011;14047;50.936;4.654;2023-02-21T01:54:22;50.05;;;22.63;;
26335;SDS011;14047;50.936;4.654;2023-02-21T01:57:13;57.70;;;23.95;;
26335;SDS011;14047;50.936;4.654;2023-02-21T01:59:58;54.60;;;22.60;;
26335;SDS011;14047;50.936;4.654;2023-02-21T02:05:36;70.55;;;27.30;;
26335;SDS011;14047;50.936;4.654;2023-02-21T02:08:26;62.63;;;25.30;;
26335;SDS011;14047;50.936;4.654;2023-02-21T02:22:42;68.32;;;25.45;;
26335;SDS011;14047;50.936;4.654;2023-02-21T02:36:19;53.20;;;22.88;;
26335;SDS011;14047;50.936;4.654;2023-02-21T02:38:54;62.70;;;24.65;;
26335;SDS011;14047;50.936;4.654;2023-02-21T02:41:41;63.28;;;24.92;;
26335;SDS011;14047;50.936;4.654;2023-02-21T02:44:28;66.43;;;25.55;;
26335;SDS011;14047;50.936;4.654;2023-02-21T02:47:05;63.92;;;25.80;;
26335;SDS011;14047;50.936;4.654;2023-02-21T02:49:39;60.20;;;23.83;;
26335;SDS011;14047;50.936;4.654;2023-02-21T02:52:08;53.60;;;22.40;;
26335;SDS011;14047;50.936;4.654;2023-02-21T02:54:35;44.78;;;19.98;;
26335;SDS011;14047;50.936;4.654;2023-02-21T02:57:01;43.25;;;19.02;;
26335;SDS011;14047;50.936;4.654;2023-02-21T02:59:36;44.80;;;20.10;;
26335;SDS011;14047;50.936;4.654;2023-02-21T03:02:23;49.80;;;20.65;;
26335;SDS011;14047;50.936;4.654;2023-02-21T03:05:13;44.90;;;18.50;;
26335;SDS011;14047;50.936;4.654;2023-02-21T03:08:04;38.20;;;17.60;;
26335;SDS011;14047;50.936;4.654;2023-02-21T03:10:44;40.95;;;18.23;;
26335;SDS011;14047;50.936;4.654;2023-02-21T03:13:29;37.55;;;17.42;;
26335;SDS011;14047;50.936;4.654;2023-02-21T03:16:10;38.42;;;17.65;;
26335;SDS011;14047;50.936;4.654;2023-02-21T03:18:44;36.53;;;17.23;;
26335;SDS011;14047;50.936;4.654;2023-02-21T03:21:16;38.42;;;17.42;;
26335;SDS011;14047;50.936;4.654;2023-02-21T03:23:45;36.20;;;15.70;;
26335;SDS011;14047;50.936;4.654;2023-02-21T03:26:14;39.08;;;16.60;;
26335;SDS011;14047;50.936;4.654;2023-02-21T03:28:45;40.08;;;17.75;;
26335;SDS011;14047;50.936;4.654;2023-02-21T03:31:13;33.88;;;16.85;;
26335;SDS011;14047;50.936;4.654;2023-02-21T03:33:44;40.63;;;17.23;;
26335;SDS011;14047;50.936;4.654;2023-02-21T03:36:10;45.58;;;17.77;;
26335;SDS011;14047;50.936;4.654;2023-02-21T03:38:37;52.50;;;20.73;;
26335;SDS011;14047;50.936;4.654;2023-02-21T03:41:03;44.03;;;18.25;;
26335;SDS011;14047;50.936;4.654;2023-02-21T03:43:33;40.75;;;18.55;;
26335;SDS011;14047;50.936;4.654;2023-02-21T03:46:01;38.15;;;18.08;;
26335;SDS011;14047;50.936;4.654;2023-02-21T03:48:27;43.25;;;20.42;;
26335;SDS011;14047;50.936;4.654;2023-02-21T03:50:55;45.53;;;19.33;;
26335;SDS011;14047;50.936;4.654;2023-02-21T03:53:25;43.03;;;19.70;;
26335;SDS011;14047;50.936;4.654;2023-02-21T03:55:51;44.47;;;19.17;;
26335;SDS011;14047;50.936;4.654;2023-02-21T03:58:23;45.80;;;19.17;;
26335;SDS011;14047;50.936;4.654;2023-02-21T04:00:49;45.38;;;19.40;;
26335;SDS011;14047;50.936;4.654;2023-02-21T04:03:16;53.85;;;20.02;;
26335;SDS011;14047;50.936;4.654;2023-02-21T04:05:49;49.53;;;19.70;;
26335;SDS011;14047;50.936;4.654;2023-02-21T04:08:15;47.60;;;18.50;;
26335;SDS011;14047;50.936;4.654;2023-02-21T04:10:42;49.70;;;20.85;;
26335;SDS011;14047;50.936;4.654;2023-02-21T04:13:08;54.45;;;20.08;;
26335;SDS011;14047;50.936;4.654;2023-02-21T04:15:40;62.83;;;22.35;;
26335;SDS011;14047;50.936;4.654;2023-02-21T04:18:06;71.72;;;22.38;;
26335;SDS011;14047;50.936;4.654;2023-02-21T04:20:32;80.32;;;26.40;;
26335;SDS011;14047;50.936;4.654;2023-02-21T04:23:00;71.38;;;27.02;;
26335;SDS011;14047;50.936;4.654;2023-02-21T04:25:26;70.78;;;25.45;;
26335;SDS011;14047;50.936;4.654;2023-02-21T04:27:58;69.35;;;25.23;;
26335;SDS011;14047;50.936;4.654;2023-02-21T04:30:24;71.75;;;24.90;;
26335;SDS011;14047;50.936;4.654;2023-02-21T04:32:50;67.22;;;25.70;;
26335;SDS011;14047;50.936;4.654;2023-02-21T04:35:16;69.82;;;24.30;;
26335;SDS011;14047;50.936;4.654;2023-02-21T04:37:43;64.75;;;22.30;;
26335;SDS011;14047;50.936;4.654;2023-02-21T04:40:11;71.90;;;24.92;;
26335;SDS011;14047;50.936;4.654;2023-02-21T04:42:37;70.30;;;24.60;;
26335;SDS011;14047;50.936;4.654;2023-02-21T04:45:03;72.55;;;23.98;;
26335;SDS011;14047;50.936;4.654;2023-02-21T04:47:29;76.43;;;26.08;;
26335;SDS011;14047;50.936;4.654;2023-02-21T04:49:56;79.05;;;25.35;;
26335;SDS011;14047;50.936;4.654;2023-02-21T04:52:22;65.45;;;23.35;;
26335;SDS011;14047;50.936;4.654;2023-02-21T04:54:49;60.50;;;21.23;;
26335;SDS011;14047;50.936;4.654;2023-02-21T04:57:15;53.10;;;20.33;;
26335;SDS011;14047;50.936;4.654;2023-02-21T04:59:41;48.80;;;19.42;;
26335;SDS011;14047;50.936;4.654;2023-02-21T05:02:07;53.22;;;19.10;;
26335;SDS011;14047;50.936;4.654;2023-02-21T05:04:34;51.83;;;21.10;;
26335;SDS011;14047;50.936;4.654;2023-02-21T05:07:01;46.83;;;19.30;;
26335;SDS011;14047;50.936;4.654;2023-02-21T05:09:27;44.33;;;18.30;;
26335;SDS011;14047;50.936;4.654;2023-02-21T05:11:53;44.97;;;18.58;;
26335;SDS011;14047;50.936;4.654;2023-02-21T05:14:19;43.10;;;18.48;;
26335;SDS011;14047;50.936;4.654;2023-02-21T05:16:45;38.30;;;17.33;;
26335;SDS011;14047;50.936;4.654;2023-02-21T05:19:11;44.30;;;17.83;;
26335;SDS011;14047;50.936;4.654;2023-02-21T05:21:37;47.90;;;17.80;;
26335;SDS011;14047;50.936;4.654;2023-02-21T05:24:04;45.42;;;18.48;;
26335;SDS011;14047;50.936;4.654;2023-02-21T05:26:35;45.30;;;18.25;;
26335;SDS011;14047;50.936;4.654;2023-02-21T05:29:02;37.13;;;16.58;;
26335;SDS011;14047;50.936;4.654;2023-02-21T05:31:29;50.50;;;19.23;;
26335;SDS011;14047;50.936;4.654;2023-02-21T05:33:56;44.83;;;18.35;;
26335;SDS011;14047;50.936;4.654;2023-02-21T05:36:22;40.55;;;16.55;;
26335;SDS011;14047;50.936;4.654;2023-02-21T05:38:50;37.88;;;16.95;;
26335;SDS011;14047;50.936;4.654;2023-02-21T05:41:18;37.38;;;15.90;;
26335;SDS011;14047;50.936;4.654;2023-02-21T05:43:45;35.72;;;15.95;;
26335;SDS011;14047;50.936;4.654;2023-02-21T05:46:32;36.05;;;15.77;;
26335;SDS011;14047;50.936;4.654;2023-02-21T05:48:59;39.28;;;15.77;;
26335;SDS011;14047;50.936;4.654;2023-02-21T05:51:26;36.55;;;15.40;;
26335;SDS011;14047;50.936;4.654;2023-02-21T05:53:57;35.22;;;15.43;;
26335;SDS011;14047;50.936;4.654;2023-02-21T05:56:23;272.20;;;30.08;;
26335;SDS011;14047;50.936;4.654;2023-02-21T05:58:49;70.85;;;16.25;;
26335;SDS011;14047;50.936;4.654;2023-02-21T06:01:15;32.83;;;13.98;;
26335;SDS011;14047;50.936;4.654;2023-02-21T06:03:41;32.30;;;13.63;;
26335;SDS011;14047;50.936;4.654;2023-02-21T06:06:08;32.10;;;13.98;;
26335;SDS011;14047;50.936;4.654;2023-02-21T06:08:55;27.67;;;12.50;;
26335;SDS011;14047;50.936;4.654;2023-02-21T06:11:24;35.92;;;13.25;;
26335;SDS011;14047;50.936;4.654;2023-02-21T06:13:55;30.05;;;13.65;;
26335;SDS011;14047;50.936;4.654;2023-02-21T06:16:22;31.73;;;12.27;;
26335;SDS011;14047;50.936;4.654;2023-02-21T06:18:52;28.25;;;11.55;;
26335;SDS011;14047;50.936;4.654;2023-02-21T06:21:20;29.15;;;12.77;;
26335;SDS011;14047;50.936;4.654;2023-02-21T06:23:49;31.65;;;13.35;;
26335;SDS011;14047;50.936;4.654;2023-02-21T06:26:15;28.27;;;12.65;;
26335;SDS011;14047;50.936;4.654;2023-02-21T06:28:42;26.90;;;12.85;;
26335;SDS011;14047;50.936;4.654;2023-02-21T06:31:08;25.25;;;11.63;;
26335;SDS011;14047;50.936;4.654;2023-02-21T06:33:35;24.27;;;10.93;;
26335;SDS011;14047;50.936;4.654;2023-02-21T06:36:04;28.10;;;11.68;;
26335;SDS011;14047;50.936;4.654;2023-02-21T06:38:38;21.90;;;10.93;;
26335;SDS011;14047;50.936;4.654;2023-02-21T06:41:04;21.73;;;10.90;;
26335;SDS011;14047;50.936;4.654;2023-02-21T06:43:34;20.05;;;10.45;;
26335;SDS011;14047;50.936;4.654;2023-02-21T06:46:03;25.77;;;11.57;;
26335;SDS011;14047;50.936;4.654;2023-02-21T06:48:30;23.08;;;10.85;;
26335;SDS011;14047;50.936;4.654;2023-02-21T06:50:56;24.98;;;11.18;;
26335;SDS011;14047;50.936;4.654;2023-02-21T06:53:22;25.52;;;11.30;;
26335;SDS011;14047;50.936;4.654;2023-02-21T06:55:48;22.35;;;10.52;;
26335;SDS011;14047;50.936;4.654;2023-02-21T06:58:14;25.63;;;10.63;;
26335;SDS011;14047;50.936;4.654;2023-02-21T07:00:39;20.58;;;9.73;;
26335;SDS011;14047;50.936;4.654;2023-02-21T07:03:05;20.73;;;9.70;;
26335;SDS011;14047;50.936;4.654;2023-02-21T07:05:31;22.42;;;10.38;;
26335;SDS011;14047;50.936;4.654;2023-02-21T07:07:59;20.92;;;9.15;;
26335;SDS011;14047;50.936;4.654;2023-02-21T07:10:26;25.58;;;10.30;;
26335;SDS011;14047;50.936;4.654;2023-02-21T07:12:53;20.20;;;9.13;;
26335;SDS011;14047;50.936;4.654;2023-02-21T07:15:19;20.42;;;9.20;;
26335;SDS011;14047;50.936;4.654;2023-02-21T07:17:46;15.77;;;8.10;;
26335;SDS011;14047;50.936;4.654;2023-02-21T07:20:12;23.00;;;8.68;;
26335;SDS011;14047;50.936;4.654;2023-02-21T07:22:38;18.52;;;8.95;;
26335;SDS011;14047;50.936;4.654;2023-02-21T07:25:04;17.23;;;7.43;;
26335;SDS011;14047;50.936;4.654;2023-02-21T07:27:31;17.45;;;8.15;;
26335;SDS011;14047;50.936;4.654;2023-02-21T07:29:57;14.73;;;7.03;;
26335;SDS011;14047;50.936;4.654;2023-02-21T07:32:23;14.88;;;7.57;;
26335;SDS011;14047;50.936;4.654;2023-02-21T07:34:49;13.93;;;7.50;;
26335;SDS011;14047;50.936;4.654;2023-02-21T07:37:15;15.82;;;7.50;;
26335;SDS011;14047;50.936;4.654;2023-02-21T07:39:41;12.05;;;6.60;;
26335;SDS011;14047;50.936;4.654;2023-02-21T07:42:06;15.00;;;7.55;;
26335;SDS011;14047;50.936;4.654;2023-02-21T07:44:32;13.95;;;7.20;;
26335;SDS011;14047;50.936;4.654;2023-02-21T07:46:59;10.57;;;5.43;;
26335;SDS011;14047;50.936;4.654;2023-02-21T07:49:24;13.23;;;6.45;;
26335;SDS011;14047;50.936;4.654;2023-02-21T07:51:50;14.13;;;6.53;;
26335;SDS011;14047;50.936;4.654;2023-02-21T07:54:16;15.15;;;6.50;;
26335;SDS011;14047;50.936;4.654;2023-02-21T07:56:43;14.68;;;7.43;;
26335;SDS011;14047;50.936;4.654;2023-02-21T07:59:10;13.00;;;6.55;;
26335;SDS011;14047;50.936;4.654;2023-02-21T08:01:36;14.57;;;7.05;;
26335;SDS011;14047;50.936;4.654;2023-02-21T08:04:03;10.05;;;6.13;;
26335;SDS011;14047;50.936;4.654;2023-02-21T08:06:29;18.88;;;7.00;;
26335;SDS011;14047;50.936;4.654;2023-02-21T08:08:58;11.77;;;6.50;;
26335;SDS011;14047;50.936;4.654;2023-02-21T08:11:27;13.48;;;7.30;;
26335;SDS011;14047;50.936;4.654;2023-02-21T08:13:54;11.13;;;6.00;;
26335;SDS011;14047;50.936;4.654;2023-02-21T08:16:20;12.35;;;6.47;;
26335;SDS011;14047;50.936;4.654;2023-02-21T08:18:47;12.68;;;6.47;;
26335;SDS011;14047;50.936;4.654;2023-02-21T08:21:15;11.52;;;5.90;;
26335;SDS011;14047;50.936;4.654;2023-02-21T08:23:41;11.65;;;6.03;;
26335;SDS011;14047;50.936;4.654;2023-02-21T08:26:08;12.50;;;6.32;;
26335;SDS011;14047;50.936;4.654;2023-02-21T08:28:34;14.18;;;7.38;;
26335;SDS011;14047;50.936;4.654;2023-02-21T08:31:02;10.38;;;5.82;;
26335;SDS011;14047;50.936;4.654;2023-02-21T08:33:28;11.80;;;5.68;;
26335;SDS011;14047;50.936;4.654;2023-02-21T08:35:54;11.18;;;5.72;;
26335;SDS011;14047;50.936;4.654;2023-02-21T08:38:20;10.80;;;5.75;;
26335;SDS011;14047;50.936;4.654;2023-02-21T08:40:47;10.52;;;5.55;;
26335;SDS011;14047;50.936;4.654;2023-02-21T08:43:13;9.13;;;5.38;;
26335;SDS011;14047;50.936;4.654;2023-02-21T08:45:39;10.40;;;5.85;;
26335;SDS011;14047;50.936;4.654;2023-02-21T08:48:04;10.55;;;5.82;;
26335;SDS011;14047;50.936;4.654;2023-02-21T08:50:30;12.52;;;6.28;;
26335;SDS011;14047;50.936;4.654;2023-02-21T08:52:57;11.35;;;6.15;;
26335;SDS011;14047;50.936;4.654;2023-02-21T08:55:23;9.55;;;5.18;;
26335;SDS011;14047;50.936;4.654;2023-02-21T08:57:51;11.23;;;5.88;;
26335;SDS011;14047;50.936;4.654;2023-02-21T09:00:18;9.60;;;5.43;;
26335;SDS011;14047;50.936;4.654;2023-02-21T09:02:50;9.18;;;5.30;;
26335;SDS011;14047;50.936;4.654;2023-02-21T09:05:17;11.50;;;6.25;;
26335;SDS011;14047;50.936;4.654;2023-02-21T09:07:49;10.15;;;6.05;;
26335;SDS011;14047;50.936;4.654;2023-02-21T09:10:19;12.23;;;5.93;;
26335;SDS011;14047;50.936;4.654;2023-02-21T09:12:45;12.65;;;5.45;;
26335;SDS011;14047;50.936;4.654;2023-02-21T09:15:15;10.68;;;5.63;;
26335;SDS011;14047;50.936;4.654;2023-02-21T09:17:41;11.98;;;6.57;;
26335;SDS011;14047;50.936;4.654;2023-02-21T09:20:08;12.73;;;6.68;;
26335;SDS011;14047;50.936;4.654;2023-02-21T09:22:41;12.50;;;6.72;;
26335;SDS011;14047;50.936;4.654;2023-02-21T09:25:09;10.82;;;6.32;;
26335;SDS011;14047;50.936;4.654;2023-02-21T09:27:40;15.00;;;7.80;;
26335;SDS011;14047;50.936;4.654;2023-02-21T09:30:07;13.35;;;7.03;;
26335;SDS011;14047;50.936;4.654;2023-02-21T09:32:35;14.35;;;7.13;;
26335;SDS011;14047;50.936;4.654;2023-02-21T09:35:02;13.27;;;7.00;;
26335;SDS011;14047;50.936;4.654;2023-02-21T09:37:29;14.10;;;7.38;;
26335;SDS011;14047;50.936;4.654;2023-02-21T09:39:56;14.32;;;6.32;;
26335;SDS011;14047;50.936;4.654;2023-02-21T09:42:26;14.98;;;6.85;;
26335;SDS011;14047;50.936;4.654;2023-02-21T09:44:54;12.13;;;6.50;;
26335;SDS011;14047;50.936;4.654;2023-02-21T09:47:27;13.40;;;7.00;;
26335;SDS011;14047;50.936;4.654;2023-02-21T09:50:04;14.00;;;7.38;;
26335;SDS011;14047;50.936;4.654;2023-02-21T09:52:36;12.73;;;6.55;;
26335;SDS011;14047;50.936;4.654;2023-02-21T09:55:07;12.05;;;6.25;;
26335;SDS011;14047;50.936;4.654;2023-02-21T09:57:39;11.60;;;6.80;;
26335;SDS011;14047;50.936;4.654;2023-02-21T10:00:24;11.95;;;6.50;;
26335;SDS011;14047;50.936;4.654;2023-02-21T10:06:02;16.02;;;7.18;;
26335;SDS011;14047;50.936;4.654;2023-02-21T10:11:47;14.10;;;7.63;;
26335;SDS011;14047;50.936;4.654;2023-02-21T10:19:44;15.10;;;7.40;;
26335;SDS011;14047;50.936;4.654;2023-02-21T10:22:20;15.75;;;8.07;;
26335;SDS011;14047;50.936;4.654;2023-02-21T10:24:51;13.40;;;7.13;;
26335;SDS011;14047;50.936;4.654;2023-02-21T10:27:21;15.25;;;7.60;;
26335;SDS011;14047;50.936;4.654;2023-02-21T10:29:53;16.02;;;8.30;;
26335;SDS011;14047;50.936;4.654;2023-02-21T10:32:29;18.27;;;9.50;;
26335;SDS011;14047;50.936;4.654;2023-02-21T10:34:56;19.63;;;9.43;;
26335;SDS011;14047;50.936;4.654;2023-02-21T10:43:00;14.55;;;7.90;;
26335;SDS011;14047;50.936;4.654;2023-02-21T10:45:35;17.75;;;8.70;;
26335;SDS011;14047;50.936;4.654;2023-02-21T10:48:34;19.52;;;9.13;;
26335;SDS011;14047;50.936;4.654;2023-02-21T10:53:33;21.13;;;10.75;;
26335;SDS011;14047;50.936;4.654;2023-02-21T10:58:46;19.95;;;9.48;;
26335;SDS011;14047;50.936;4.654;2023-02-21T11:03:56;19.42;;;9.48;;
26335;SDS011;14047;50.936;4.654;2023-02-21T11:08:55;19.23;;;10.52;;
26335;SDS011;14047;50.936;4.654;2023-02-21T11:11:33;22.63;;;12.00;;
26335;SDS011;14047;50.936;4.654;2023-02-21T11:14:19;29.38;;;12.88;;
26335;SDS011;14047;50.936;4.654;2023-02-21T11:17:03;23.67;;;12.07;;
26335;SDS011;14047;50.936;4.654;2023-02-21T11:19:51;27.92;;;12.27;;
26335;SDS011;14047;50.936;4.654;2023-02-21T11:22:25;25.90;;;12.48;;
26335;SDS011;14047;50.936;4.654;2023-02-21T11:30:34;25.92;;;11.77;;
26335;SDS011;14047;50.936;4.654;2023-02-21T11:33:02;25.90;;;13.13;;
26335;SDS011;14047;50.936;4.654;2023-02-21T11:35:34;26.73;;;13.32;;
26335;SDS011;14047;50.936;4.654;2023-02-21T11:38:57;34.33;;;14.30;;
26335;SDS011;14047;50.936;4.654;2023-02-21T11:41:15;29.02;;;14.20;;
26335;SDS011;14047;50.936;4.654;2023-02-21T11:44:01;32.97;;;14.85;;
26335;SDS011;14047;50.936;4.654;2023-02-21T11:46:36;34.92;;;15.32;;
26335;SDS011;14047;50.936;4.654;2023-02-21T11:49:19;36.47;;;16.23;;
26335;SDS011;14047;50.936;4.654;2023-02-21T11:52:10;34.78;;;15.63;;
26335;SDS011;14047;50.936;4.654;2023-02-21T11:54:40;36.20;;;16.33;;
26335;SDS011;14047;50.936;4.654;2023-02-21T11:59:59;32.80;;;15.05;;
26335;SDS011;14047;50.936;4.654;2023-02-21T12:03:12;31.60;;;14.95;;
26335;SDS011;14047;50.936;4.654;2023-02-21T12:06:05;35.75;;;15.30;;
26335;SDS011;14047;50.936;4.654;2023-02-21T12:09:03;30.13;;;13.98;;
26335;SDS011;14047;50.936;4.654;2023-02-21T12:26:05;33.53;;;14.80;;
26335;SDS011;14047;50.936;4.654;2023-02-21T12:31:39;26.10;;;12.35;;
26335;SDS011;14047;50.936;4.654;2023-02-21T12:43:37;30.58;;;12.80;;
26335;SDS011;14047;50.936;4.654;2023-02-21T12:48:45;24.50;;;12.50;;
26335;SDS011;14047;50.936;4.654;2023-02-21T12:51:19;23.98;;;11.93;;
26335;SDS011;14047;50.936;4.654;2023-02-21T12:53:53;23.17;;;11.45;;
26335;SDS011;14047;50.936;4.654;2023-02-21T13:00:11;22.98;;;12.07;;
26335;SDS011;14047;50.936;4.654;2023-02-21T13:02:29;24.15;;;12.10;;
26335;SDS011;14047;50.936;4.654;2023-02-21T13:05:12;26.10;;;12.30;;
26335;SDS011;14047;50.936;4.654;2023-02-21T13:07:47;22.85;;;12.25;;
26335;SDS011;14047;50.936;4.654;2023-02-21T13:10:20;24.60;;;12.95;;
26335;SDS011;14047;50.936;4.654;2023-02-21T13:13:03;26.25;;;12.93;;
26335;SDS011;14047;50.936;4.654;2023-02-21T13:15:35;24.88;;;13.32;;
26335;SDS011;14047;50.936;4.654;2023-02-21T13:20:36;25.58;;;13.20;;
26335;SDS011;14047;50.936;4.654;2023-02-21T13:23:08;29.60;;;13.75;;
26335;SDS011;14047;50.936;4.654;2023-02-21T13:28:45;30.55;;;14.05;;
26335;SDS011;14047;50.936;4.654;2023-02-21T13:31:20;29.73;;;14.93;;
26335;SDS011;14047;50.936;4.654;2023-02-21T13:33:52;30.55;;;14.65;;
26335;SDS011;14047;50.936;4.654;2023-02-21T13:36:25;28.60;;;14.23;;
26335;SDS011;14047;50.936;4.654;2023-02-21T13:38:58;31.08;;;14.63;;
26335;SDS011;14047;50.936;4.654;2023-02-21T13:41:50;28.13;;;14.52;;
26335;SDS011;14047;50.936;4.654;2023-02-21T13:47:10;30.90;;;15.40;;
26335;SDS011;14047;50.936;4.654;2023-02-21T13:49:51;28.35;;;15.23;;
26335;SDS011;14047;50.936;4.654;2023-02-21T13:57:39;31.58;;;16.20;;
26335;SDS011;14047;50.936;4.654;2023-02-21T14:08:12;31.42;;;15.73;;
26335;SDS011;14047;50.936;4.654;2023-02-21T14:16:29;32.75;;;15.23;;
26335;SDS011;14047;50.936;4.654;2023-02-21T14:19:01;32.40;;;15.32;;
26335;SDS011;14047;50.936;4.654;2023-02-21T14:21:46;28.10;;;14.50;;
26335;SDS011;14047;50.936;4.654;2023-02-21T14:24:24;30.73;;;15.85;;
26335;SDS011;14047;50.936;4.654;2023-02-21T14:30:33;30.98;;;15.30;;
26335;SDS011;14047;50.936;4.654;2023-02-21T14:32:46;30.88;;;14.05;;
26335;SDS011;14047;50.936;4.654;2023-02-21T15:02:42;25.15;;;12.95;;
26335;SDS011;14047;50.936;4.654;2023-02-21T15:06:17;26.73;;;13.82;;
26335;SDS011;14047;50.936;4.654;2023-02-21T15:08:45;26.10;;;13.48;;
26335;SDS011;14047;50.936;4.654;2023-02-21T15:13:47;24.70;;;13.52;;
26335;SDS011;14047;50.936;4.654;2023-02-21T15:16:39;24.50;;;13.55;;
26335;SDS011;14047;50.936;4.654;2023-02-21T15:19:18;29.45;;;14.48;;
26335;SDS011;14047;50.936;4.654;2023-02-21T15:21:46;27.23;;;14.18;;
26335;SDS011;14047;50.936;4.654;2023-02-21T15:24:13;28.85;;;14.63;;
26335;SDS011;14047;50.936;4.654;2023-02-21T15:26:40;27.08;;;13.48;;
26335;SDS011;14047;50.936;4.654;2023-02-21T15:29:10;28.85;;;14.63;;
26335;SDS011;14047;50.936;4.654;2023-02-21T15:34:16;26.25;;;14.23;;
26335;SDS011;14047;50.936;4.654;2023-02-21T15:36:45;25.42;;;14.18;;
26335;SDS011;14047;50.936;4.654;2023-02-21T15:41:49;26.63;;;13.63;;
26335;SDS011;14047;50.936;4.654;2023-02-21T15:44:26;25.77;;;14.20;;
26335;SDS011;14047;50.936;4.654;2023-02-21T15:46:57;27.52;;;13.75;;
26335;SDS011;14047;50.936;4.654;2023-02-21T15:49:39;25.55;;;13.25;;
26335;SDS011;14047;50.936;4.654;2023-02-21T15:57:38;26.38;;;14.77;;
26335;SDS011;14047;50.936;4.654;2023-02-21T16:01:06;28.77;;;14.63;;
26335;SDS011;14047;50.936;4.654;2023-02-21T16:19:46;28.67;;;14.60;;
26335;SDS011;14047;50.936;4.654;2023-02-21T16:24:49;25.60;;;13.18;;
26335;SDS011;14047;50.936;4.654;2023-02-21T16:27:28;29.63;;;13.65;;
26335;SDS011;14047;50.936;4.654;2023-02-21T16:29:54;27.55;;;14.88;;
26335;SDS011;14047;50.936;4.654;2023-02-21T16:32:20;29.23;;;14.98;;
26335;SDS011;14047;50.936;4.654;2023-02-21T16:34:46;27.35;;;13.65;;
26335;SDS011;14047;50.936;4.654;2023-02-21T16:37:19;26.27;;;13.23;;
26335;SDS011;14047;50.936;4.654;2023-02-21T16:39:46;27.05;;;13.60;;
26335;SDS011;14047;50.936;4.654;2023-02-21T16:42:13;26.92;;;13.25;;
26335;SDS011;14047;50.936;4.654;2023-02-21T16:44:43;23.48;;;13.32;;
26335;SDS011;14047;50.936;4.654;2023-02-21T16:47:13;28.40;;;13.82;;
26335;SDS011;14047;50.936;4.654;2023-02-21T16:49:41;26.05;;;14.18;;
26335;SDS011;14047;50.936;4.654;2023-02-21T16:52:15;26.52;;;13.68;;
26335;SDS011;14047;50.936;4.654;2023-02-21T16:54:42;23.83;;;12.95;;
26335;SDS011;14047;50.936;4.654;2023-02-21T16:57:08;26.40;;;13.35;;
26335;SDS011;14047;50.936;4.654;2023-02-21T16:59:35;25.38;;;12.73;;
26335;SDS011;14047;50.936;4.654;2023-02-21T17:02:02;21.83;;;12.68;;
26335;SDS011;14047;50.936;4.654;2023-02-21T17:04:29;30.30;;;13.68;;
26335;SDS011;14047;50.936;4.654;2023-02-21T17:07:01;25.80;;;12.98;;
26335;SDS011;14047;50.936;4.654;2023-02-21T17:09:30;25.73;;;12.73;;
26335;SDS011;14047;50.936;4.654;2023-02-21T17:12:04;23.63;;;12.88;;
26335;SDS011;14047;50.936;4.654;2023-02-21T17:14:31;26.73;;;14.15;;
26335;SDS011;14047;50.936;4.654;2023-02-21T17:16:58;23.27;;;12.82;;
26335;SDS011;14047;50.936;4.654;2023-02-21T17:19:24;27.70;;;13.85;;
26335;SDS011;14047;50.936;4.654;2023-02-21T17:21:50;23.13;;;13.02;;
26335;SDS011;14047;50.936;4.654;2023-02-21T17:24:17;24.75;;;13.40;;
26335;SDS011;14047;50.936;4.654;2023-02-21T17:26:43;23.33;;;13.07;;
26335;SDS011;14047;50.936;4.654;2023-02-21T17:29:09;23.77;;;13.45;;
26335;SDS011;14047;50.936;4.654;2023-02-21T17:31:36;24.45;;;13.98;;
26335;SDS011;14047;50.936;4.654;2023-02-21T17:34:02;23.45;;;14.13;;
26335;SDS011;14047;50.936;4.654;2023-02-21T17:36:28;33.70;;;16.27;;
26335;SDS011;14047;50.936;4.654;2023-02-21T17:38:54;32.35;;;19.15;;
26335;SDS011;14047;50.936;4.654;2023-02-21T17:41:22;31.88;;;17.73;;
26335;SDS011;14047;50.936;4.654;2023-02-21T17:43:48;29.08;;;14.82;;
26335;SDS011;14047;50.936;4.654;2023-02-21T17:46:16;27.75;;;13.93;;
26335;SDS011;14047;50.936;4.654;2023-02-21T17:48:43;34.70;;;15.52;;
26335;SDS011;14047;50.936;4.654;2023-02-21T17:51:15;33.25;;;15.82;;
26335;SDS011;14047;50.936;4.654;2023-02-21T17:53:49;29.38;;;15.43;;
26335;SDS011;14047;50.936;4.654;2023-02-21T17:56:17;31.60;;;14.98;;
26335;SDS011;14047;50.936;4.654;2023-02-21T17:58:44;30.17;;;16.15;;
26335;SDS011;14047;50.936;4.654;2023-02-21T18:01:13;27.45;;;15.07;;
26335;SDS011;14047;50.936;4.654;2023-02-21T18:03:40;32.85;;;14.73;;